Time;durP1;ratioP1;P1;durP2;ratioP2;P2;SDS_P1;SDS_P2;PMS_P1;PMS_P2;Temp;Humidity;BMP_temperature;BMP_pressure;BME280_temperature;BME280_humidity;BME280_pressure;Samples;Min_cycle;Max_cycle;Signal;HPM_P1;HPM_P2
2021/09/17 00:00:47;;;;;;;7.40;2.35;;;;;;;16.13;82.36;101238.22;4924682;28;20042;-53
2021/09/17 00:03:13;;;;;;;3.47;1.80;;;;;;;16.30;81.22;101228.72;4926010;28;20609;-54
2021/09/17 00:05:38;;;;;;;3.42;1.85;;;;;;;16.28;81.57;101235.47;4925147;28;20593;-54
2021/09/17 00:08:04;;;;;;;2.60;2.03;;;;;;;16.27;81.57;101228.47;4925389;28;20039;-54
2021/09/17 00:10:30;;;;;;;2.85;2.10;;;;;;;16.00;83.01;101229.59;4923566;28;20042;-55
2021/09/17 00:12:55;;;;;;;3.95;2.20;;;;;;;16.16;82.55;101221.47;4927033;28;20028;-55
2021/09/17 00:15:21;;;;;;;6.03;2.47;;;;;;;16.18;82.39;101222.81;4924442;28;20043;-53
2021/09/17 00:17:47;;;;;;;4.68;1.95;;;;;;;16.27;81.93;101220.34;4925281;28;20034;-54
2021/09/17 00:20:14;;;;;;;4.90;2.03;;;;;;;16.19;82.31;101221.72;4925811;28;20027;-54
2021/09/17 00:22:39;;;;;;;3.75;1.73;;;;;;;16.24;82.13;101218.19;4925745;28;20032;-53
2021/09/17 00:25:06;;;;;;;6.10;1.95;;;;;;;16.18;82.41;101224.72;4926729;28;20035;-55
2021/09/17 00:27:31;;;;;;;2.22;1.80;;;;;;;16.24;82.17;101218.19;4925523;28;20023;-55
2021/09/17 00:29:57;;;;;;;3.60;2.10;;;;;;;16.28;82.03;101222.78;4926616;28;20785;-55
2021/09/17 00:32:22;;;;;;;3.33;2.00;;;;;;;16.28;81.96;101219.25;4924910;28;20097;-54
2021/09/17 00:34:48;;;;;;;6.10;2.15;;;;;;;16.10;82.92;101211.72;4924045;28;20390;-54
2021/09/17 00:37:13;;;;;;;2.15;1.52;;;;;;;16.28;81.98;101208.44;4926483;28;20090;-53
2021/09/17 00:39:39;;;;;;;3.63;1.70;;;;;;;16.32;81.94;101206.81;4923863;28;20038;-54
2021/09/17 00:42:04;;;;;;;3.60;2.40;;;;;;;16.28;82.32;101208.44;4923341;28;20463;-53
2021/09/17 00:44:30;;;;;;;3.30;1.95;;;;;;;16.31;81.99;101207.88;4923701;28;20302;-52
2021/09/17 00:46:56;;;;;;;2.80;2.00;;;;;;;16.30;81.99;101198.16;4922204;28;20218;-54
2021/09/17 00:49:23;;;;;;;3.85;2.00;;;;;;;16.30;82.38;101203.56;4924033;28;20106;-53
2021/09/17 00:51:49;;;;;;;3.58;1.98;;;;;;;16.21;83.01;101199.81;4924099;28;20043;-52
2021/09/17 00:54:15;;;;;;;4.75;1.92;;;;;;;16.11;83.51;101199.84;4923782;28;20027;-54
2021/09/17 00:56:42;;;;;;;5.60;2.03;;;;;;;16.19;83.15;101199.28;4923970;28;20210;-54
2021/09/17 00:59:08;;;;;;;5.43;2.15;;;;;;;16.15;83.26;101198.19;4926839;28;20027;-53
2021/09/17 01:01:33;;;;;;;2.55;2.05;;;;;;;16.06;83.57;101197.97;4924093;28;20062;-54
2021/09/17 01:03:59;;;;;;;4.53;1.95;;;;;;;16.11;83.44;101194.44;4922815;28;20122;-54
2021/09/17 01:06:24;;;;;;;4.65;1.90;;;;;;;16.09;83.74;101196.59;4925584;28;20023;-54
2021/09/17 01:08:50;;;;;;;4.80;1.98;;;;;;;16.13;83.26;101192.25;4923380;28;20031;-54
2021/09/17 01:11:16;;;;;;;7.18;2.33;;;;;;;16.09;83.57;101193.91;4923460;28;20085;-53
2021/09/17 01:13:42;;;;;;;5.50;2.17;;;;;;;15.98;84.06;101191.22;4905493;28;20066;-54
2021/09/17 01:16:08;;;;;;;2.25;1.73;;;;;;;16.00;84.22;101190.94;4923644;28;20174;-55
2021/09/17 01:18:33;;;;;;;2.70;1.40;;;;;;;16.06;84.00;101186.34;4925238;29;20494;-53
2021/09/17 01:21:01;;;;;;;2.00;1.80;;;;;;;15.95;84.79;101189.03;4925158;29;20046;-55
2021/09/17 01:23:27;;;;;;;3.60;1.90;;;;;;;15.88;85.42;101182.31;4923296;28;21804;-54
2021/09/17 01:25:53;;;;;;;2.55;1.38;;;;;;;15.93;85.02;101185.81;4925096;28;20027;-55
2021/09/17 01:28:27;;;;;;;3.28;1.67;;;;;;;15.93;85.19;101187.72;4923017;28;20027;-54
2021/09/17 01:30:53;;;;;;;3.95;1.52;;;;;;;16.03;84.66;101179.59;4920580;29;20034;-55
2021/09/17 01:33:18;;;;;;;1.80;1.70;;;;;;;15.74;86.46;101176.66;4924065;28;20031;-55
2021/09/17 01:35:45;;;;;;;3.63;1.65;;;;;;;15.83;85.92;101182.34;4919655;28;20059;-55
2021/09/17 01:38:11;;;;;;;4.43;1.95;;;;;;;15.81;86.15;101179.09;4922841;28;20074;-53
2021/09/17 01:40:37;;;;;;;2.78;1.50;;;;;;;15.93;85.55;101179.59;4923936;28;20028;-55
2021/09/17 01:43:03;;;;;;;2.70;1.35;;;;;;;15.94;85.70;101170.41;4923449;28;20042;-52
2021/09/17 01:45:28;;;;;;;4.85;1.67;;;;;;;15.75;87.02;101182.88;4923634;28;20043;-53
2021/09/17 01:47:54;;;;;;;2.70;1.50;;;;;;;15.85;86.49;101178.28;4923194;28;20031;-53
2021/09/17 01:50:19;;;;;;;3.88;1.90;;;;;;;15.85;86.45;101175.56;4923149;29;20043;-55
2021/09/17 01:52:45;;;;;;;2.65;1.52;;;;;;;15.87;86.38;101175.28;4925051;28;20089;-55
2021/09/17 01:55:10;;;;;;;5.70;1.88;;;;;;;15.58;88.54;101173.13;4924830;29;20031;-53
2021/09/17 01:57:36;;;;;;;3.10;1.65;;;;;;;15.69;88.02;101179.38;4924652;28;20031;-54
2021/09/17 02:00:05;;;;;;;4.38;1.80;;;;;;;15.57;88.88;101192.28;4923331;29;20042;-55
2021/09/17 02:02:31;;;;;;;2.75;1.50;;;;;;;15.67;88.60;101178.84;4924037;28;21578;-54
2021/09/17 02:04:56;;;;;;;2.10;1.63;;;;;;;15.48;90.07;101178.53;4922643;28;20037;-55
2021/09/17 02:07:22;;;;;;;2.92;1.40;;;;;;;15.61;89.38;101178.00;4922279;28;21538;-55
2021/09/17 02:09:48;;;;;;;2.85;1.42;;;;;;;15.64;89.34;101172.09;4921909;28;20034;-54
2021/09/17 02:12:13;;;;;;;1.98;1.35;;;;;;;15.67;89.26;101173.44;4923870;28;20039;-53
2021/09/17 02:14:39;;;;;;;2.10;1.90;;;;;;;15.70;89.08;101171.00;4923250;28;20043;-55
2021/09/17 02:17:05;;;;;;;5.05;1.77;;;;;;;15.62;89.72;101168.03;4922682;28;20118;-55
2021/09/17 02:19:30;;;;;;;2.47;1.58;;;;;;;15.57;89.97;101165.28;4921048;28;20371;-55
2021/09/17 02:21:56;;;;;;;3.70;1.73;;;;;;;15.53;90.36;101164.22;4922319;28;20035;-54
2021/09/17 02:24:22;;;;;;;5.43;2.00;;;;;;;15.49;91.02;101174.75;4921837;28;22426;-55
2021/09/17 02:26:47;;;;;;;6.20;2.05;;;;;;;15.39;91.96;101162.06;4922157;28;20098;-53
2021/09/17 02:29:13;;;;;;;2.00;1.80;;;;;;;15.18;93.32;101170.41;4922850;29;20114;-57
2021/09/17 02:31:39;;;;;;;2.70;1.67;;;;;;;15.35;92.35;101163.66;4921963;28;20036;-54
2021/09/17 02:34:04;;;;;;;3.58;1.70;;;;;;;15.46;91.53;101161.00;4921460;29;20122;-54
2021/09/17 02:36:30;;;;;;;2.50;1.60;;;;;;;15.46;91.75;101158.28;4924217;28;20035;-54
2021/09/17 02:38:56;;;;;;;2.88;1.80;;;;;;;15.41;92.34;101167.19;4923403;28;20454;-55
2021/09/17 02:41:21;;;;;;;6.72;2.30;;;;;;;15.21;93.99;101157.19;4923506;29;20035;-55
2021/09/17 02:43:47;;;;;;;2.13;1.98;;;;;;;15.24;93.70;101159.34;4923304;29;20479;-55
2021/09/17 02:46:12;;;;;;;5.22;2.33;;;;;;;15.21;94.27;101154.47;4923614;28;21443;-54
2021/09/17 02:48:38;;;;;;;5.28;2.17;;;;;;;15.35;93.08;101157.47;4922382;28;20090;-53
2021/09/17 02:51:03;;;;;;;5.05;2.20;;;;;;;15.21;93.69;101159.06;4922566;28;20752;-52
2021/09/17 02:53:29;;;;;;;4.05;1.90;;;;;;;15.19;93.93;101145.84;4923715;28;20043;-55
2021/09/17 02:55:54;;;;;;;3.75;2.30;;;;;;;15.14;93.86;101145.84;4923844;28;20034;-54
2021/09/17 02:58:20;;;;;;;3.60;1.88;;;;;;;15.20;93.22;101144.75;4923222;29;20058;-54
2021/09/17 03:00:45;;;;;;;4.30;1.83;;;;;;;15.19;92.77;101148.53;4922470;28;20546;-54
2021/09/17 03:03:11;;;;;;;3.25;1.88;;;;;;;15.03;92.64;101139.63;4925096;28;20557;-55
2021/09/17 03:05:37;;;;;;;4.00;2.35;;;;;;;15.14;92.16;101143.16;4926733;28;20102;-55
2021/09/17 03:08:02;;;;;;;2.47;2.28;;;;;;;15.08;92.12;101145.03;4927580;28;20458;-52
2021/09/17 03:10:28;;;;;;;9.60;2.08;;;;;;;15.15;91.63;101150.16;4926208;28;20078;-54
2021/09/17 03:12:53;;;;;;;5.03;1.67;;;;;;;15.08;91.35;101130.72;4925612;29;20393;-54
2021/09/17 03:15:19;;;;;;;5.72;1.80;;;;;;;15.11;90.50;101141.81;4925327;28;20090;-57
2021/09/17 03:17:44;;;;;;;6.55;1.60;;;;;;;15.17;89.97;101139.91;4925952;29;20035;-55
2021/09/17 03:20:10;;;;;;;4.47;1.80;;;;;;;15.23;89.75;101138.81;4924746;29;21608;-54
2021/09/17 03:22:36;;;;;;;5.85;1.60;;;;;;;15.28;88.73;101138.03;4925565;28;20042;-55
2021/09/17 03:25:02;;;;;;;2.83;1.35;;;;;;;15.19;89.36;101145.84;4925340;28;20032;-53
2021/09/17 03:27:28;;;;;;;1.70;1.52;;;;;;;15.18;88.73;101138.03;4924956;28;20042;-52
2021/09/17 03:29:53;;;;;;;3.78;1.65;;;;;;;15.21;88.47;101135.59;4927132;28;20035;-53
2021/09/17 03:32:19;;;;;;;5.47;1.48;;;;;;;15.20;88.61;101133.97;4926830;28;20825;-55
2021/09/17 03:34:45;;;;;;;4.57;1.60;;;;;;;15.13;88.73;101133.44;4925683;29;20023;-54
2021/09/17 03:37:12;;;;;;;1.95;1.60;;;;;;;15.15;88.72;101141.25;4925807;28;20035;-55
2021/09/17 03:39:38;;;;;;;3.20;1.52;;;;;;;15.22;87.77;101139.91;4926834;28;20351;-55
2021/09/17 03:42:03;;;;;;;3.25;1.55;;;;;;;15.16;87.71;101132.91;4924285;29;20045;-54
2021/09/17 03:44:29;;;;;;;3.00;1.25;;;;;;;15.14;87.78;101128.84;4907363;29;20274;-54
2021/09/17 03:46:54;;;;;;;4.25;1.70;;;;;;;15.21;87.33;101123.97;4928253;28;20020;-53
2021/09/17 03:49:20;;;;;;;5.63;1.38;;;;;;;15.26;86.95;101135.59;4924661;28;20050;-55
2021/09/17 03:51:46;;;;;;;3.50;1.77;;;;;;;15.21;86.68;101127.50;4925586;28;20028;-55
2021/09/17 03:54:11;;;;;;;3.92;1.42;;;;;;;15.16;87.05;101138.28;4928922;28;20035;-55
2021/09/17 03:56:37;;;;;;;2.50;1.73;;;;;;;15.12;86.91;101134.53;4927340;29;20497;-54
2021/09/17 03:59:02;;;;;;;3.42;1.65;;;;;;;15.06;87.28;101138.25;4925832;28;21563;-53
2021/09/17 04:01:28;;;;;;;2.55;1.20;;;;;;;15.19;86.60;101129.66;4924789;29;20043;-52
2021/09/17 04:03:53;;;;;;;5.30;1.83;;;;;;;15.13;86.53;101133.44;4925613;29;20290;-54
2021/09/17 04:06:19;;;;;;;4.25;1.67;;;;;;;15.07;86.61;101134.50;4907699;29;20537;-54
2021/09/17 04:08:44;;;;;;;1.73;1.25;;;;;;;15.09;86.14;101133.16;4923676;28;20041;-55
2021/09/17 04:11:10;;;;;;;3.15;1.42;;;;;;;15.03;86.48;101134.22;4923898;29;20028;-53
2021/09/17 04:13:35;;;;;;;4.72;1.90;;;;;;;15.14;86.06;101129.66;4924300;28;20506;-54
2021/09/17 04:16:01;;;;;;;5.00;1.75;;;;;;;15.06;86.12;101138.25;4924467;28;20027;-54
2021/09/17 04:18:26;;;;;;;4.03;1.58;;;;;;;15.13;85.81;101140.72;4926609;28;20043;-54
2021/09/17 04:20:52;;;;;;;1.98;1.42;;;;;;;15.04;85.62;101137.72;4924694;28;20039;-52
2021/09/17 04:23:18;;;;;;;3.25;1.35;;;;;;;15.08;85.49;101138.81;4925739;28;21475;-52
2021/09/17 04:25:43;;;;;;;4.45;1.63;;;;;;;14.92;86.18;101135.31;4925632;28;20404;-53
2021/09/17 04:28:09;;;;;;;3.70;1.70;;;;;;;14.96;85.59;101132.88;4926440;28;20046;-54
2021/09/17 04:30:34;;;;;;;5.85;1.40;;;;;;;14.95;nan;101136.66;4925607;28;20034;-53
2021/09/17 04:33:00;;;;;;;2.83;1.10;;;;;;;14.97;85.35;101132.59;4925882;28;21923;-53
2021/09/17 04:35:27;;;;;;;5.45;1.65;;;;;;;14.96;85.69;101135.56;4925024;28;20035;-53
2021/09/17 04:37:56;;;;;;;1.55;1.13;;;;;;;14.90;86.08;101136.63;4924477;28;20542;-54
2021/09/17 04:40:23;;;;;;;5.68;1.73;;;;;;;14.82;86.06;101135.28;4923044;28;20481;-54
2021/09/17 04:42:49;;;;;;;5.28;1.35;;;;;;;14.81;86.32;101145.25;4910839;29;20035;-54
2021/09/17 04:45:15;;;;;;;3.58;1.50;;;;;;;14.96;85.74;101135.56;4924944;28;20062;-55
2021/09/17 04:47:40;;;;;;;6.43;1.33;;;;;;;14.89;85.93;101143.91;4926277;28;20061;-54
2021/09/17 04:50:07;;;;;;;6.28;1.65;;;;;;;14.91;85.77;101147.19;4919968;29;20589;-55
2021/09/17 04:52:33;;;;;;;3.08;1.35;;;;;;;14.93;85.81;101142.31;4923303;29;20531;-54
2021/09/17 04:54:59;;;;;;;4.75;1.40;;;;;;;14.88;85.98;101150.38;4924700;28;20070;-54
2021/09/17 04:57:26;;;;;;;4.60;1.23;;;;;;;14.90;85.38;101153.66;4923781;28;20494;-54
2021/09/17 04:59:53;;;;;;;5.30;1.48;;;;;;;14.88;86.15;101158.47;4921829;28;20071;-55
2021/09/17 05:02:18;;;;;;;3.30;1.50;;;;;;;14.97;85.67;101150.69;4923346;28;20054;-54
2021/09/17 05:04:43;;;;;;;5.55;1.48;;;;;;;14.94;85.75;101154.72;4921860;28;20466;-54
2021/09/17 05:07:11;;;;;;;3.97;1.35;;;;;;;15.01;85.32;101157.97;4922933;28;20031;-52
2021/09/17 05:09:37;;;;;;;3.55;1.45;;;;;;;15.08;84.80;101163.94;4922640;28;20054;-54
2021/09/17 05:12:02;;;;;;;5.97;1.60;;;;;;;14.96;85.16;101160.66;4923866;28;20043;-54
2021/09/17 05:14:28;;;;;;;4.60;1.48;;;;;;;14.99;85.31;101151.22;4921186;28;20323;-54
2021/09/17 05:16:53;;;;;;;5.03;1.58;;;;;;;14.97;85.20;101158.78;4923423;29;20461;-55
2021/09/17 05:19:22;;;;;;;7.72;1.48;;;;;;;14.96;85.12;101162.56;4925133;28;20183;-53
2021/09/17 05:21:49;;;;;;;4.05;1.40;;;;;;;14.94;85.34;101162.81;4923454;28;20031;-55
2021/09/17 05:24:14;;;;;;;3.17;1.27;;;;;;;15.01;84.92;101159.84;4924255;28;20446;-53
2021/09/17 05:26:39;;;;;;;4.72;1.15;;;;;;;14.81;85.94;101160.63;4922356;28;20024;-54
2021/09/17 05:29:05;;;;;;;1.85;1.25;;;;;;;15.06;85.15;101159.84;4922758;29;20462;-53
2021/09/17 05:31:30;;;;;;;4.03;1.10;;;;;;;15.10;84.66;101159.06;4923950;28;20443;-52
2021/09/17 05:33:56;;;;;;;5.30;1.42;;;;;;;14.95;85.85;101163.63;4924864;28;20475;-55
2021/09/17 05:36:21;;;;;;;5.30;1.50;;;;;;;15.01;85.19;101162.56;4920315;29;20030;-53
2021/09/17 05:38:47;;;;;;;3.17;1.10;;;;;;;14.97;85.69;101156.06;4904355;29;20051;-55
2021/09/17 05:41:14;;;;;;;2.22;1.23;;;;;;;14.85;85.86;101159.00;4920987;28;20043;-52
2021/09/17 05:43:40;;;;;;;2.50;1.30;;;;;;;14.94;85.93;101162.00;4921502;28;20042;-54
2021/09/17 05:46:05;;;;;;;1.20;0.80;;;;;;;14.89;85.77;101165.50;4922900;28;20035;-53
2021/09/17 05:48:31;;;;;;;2.97;0.90;;;;;;;14.87;85.86;101161.44;4924614;28;20922;-54
2021/09/17 05:50:56;;;;;;;2.33;1.00;;;;;;;14.78;85.77;101161.97;4922048;29;20035;-52
2021/09/17 05:53:22;;;;;;;2.72;1.00;;;;;;;14.76;85.94;101164.13;4923886;29;20115;-55
2021/09/17 05:55:48;;;;;;;2.15;1.35;;;;;;;14.49;87.42;101163.47;4921611;28;20070;-53
2021/09/17 05:58:13;;;;;;;2.75;0.93;;;;;;;14.70;86.29;101158.97;4921950;29;20394;-53
2021/09/17 06:00:39;;;;;;;7.90;1.05;;;;;;;14.80;85.80;101159.00;4919530;28;20091;-55
2021/09/17 06:03:04;;;;;;;1.77;0.80;;;;;;;14.59;86.40;101163.53;4922966;28;20117;-53
2021/09/17 06:05:30;;;;;;;1.55;0.70;;;;;;;14.79;85.39;101160.09;4927923;28;20031;-54
2021/09/17 06:07:55;;;;;;;1.13;0.73;;;;;;;14.68;86.38;101153.03;4923820;29;20038;-53
2021/09/17 06:10:21;;;;;;;1.63;0.80;;;;;;;14.62;86.28;101157.59;4922775;29;20140;-54
2021/09/17 06:12:46;;;;;;;1.98;0.90;;;;;;;14.56;86.53;101155.97;4924937;28;20035;-53
2021/09/17 06:15:13;;;;;;;2.83;0.80;;;;;;;14.63;86.45;101153.84;4922710;28;20130;-56
2021/09/17 06:17:42;;;;;;;3.85;1.20;;;;;;;14.54;86.65;101158.09;4923553;28;22368;-54
2021/09/17 06:20:09;;;;;;;3.03;0.90;;;;;;;14.66;86.37;101156.00;4923755;28;20036;-56
2021/09/17 06:22:35;;;;;;;1.65;0.88;;;;;;;14.68;86.06;101164.63;4921778;28;20118;-56
2021/09/17 06:25:01;;;;;;;3.63;1.10;;;;;;;14.69;86.15;101158.16;4922485;28;21491;-56
2021/09/17 06:27:26;;;;;;;2.20;1.02;;;;;;;14.73;85.54;101158.47;4924166;28;20031;-54
2021/09/17 06:29:51;;;;;;;2.72;1.40;;;;;;;14.64;85.85;101163.53;4921731;29;20038;-54
2021/09/17 06:32:17;;;;;;;3.22;1.10;;;;;;;14.89;84.92;101160.09;4919978;28;20031;-55
2021/09/17 06:34:43;;;;;;;2.33;0.82;;;;;;;14.88;84.25;101157.66;4922467;28;20114;-56
2021/09/17 06:37:09;;;;;;;2.28;0.90;;;;;;;14.91;84.31;101170.66;4922240;29;20319;-54
2021/09/17 06:39:35;;;;;;;1.48;0.98;;;;;;;15.04;83.65;101168.22;4927090;28;20040;-56
2021/09/17 06:42:00;;;;;;;3.78;0.73;;;;;;;15.06;82.64;101165.25;4925070;29;20055;-56
2021/09/17 06:44:27;;;;;;;6.00;0.90;;;;;;;15.12;82.66;101164.22;4927174;28;20039;-54
2021/09/17 06:46:52;;;;;;;1.98;1.10;;;;;;;15.19;82.11;101170.13;4924793;28;20423;-54
2021/09/17 06:49:18;;;;;;;1.95;0.60;;;;;;;15.27;81.51;101171.50;4927166;28;20149;-55
2021/09/17 06:51:43;;;;;;;1.10;0.70;;;;;;;15.26;82.02;101167.16;4924961;28;20117;-55
2021/09/17 06:54:09;;;;;;;1.15;0.88;;;;;;;15.03;82.41;101169.31;4927998;28;20035;-54
2021/09/17 06:56:35;;;;;;;1.95;1.00;;;;;;;14.96;83.27;101171.47;4928994;28;20023;-55
2021/09/17 06:59:00;;;;;;;1.95;0.93;;;;;;;15.02;83.24;101177.66;4927083;28;20054;-54
2021/09/17 07:01:26;;;;;;;1.55;0.95;;;;;;;14.96;83.95;101174.16;4929386;28;20509;-55
2021/09/17 07:03:52;;;;;;;3.25;1.00;;;;;;;15.06;83.92;101176.06;4925331;28;20624;-56
2021/09/17 07:06:17;;;;;;;4.82;1.40;;;;;;;15.05;83.83;101175.25;4927318;28;20035;-54
2021/09/17 07:08:43;;;;;;;5.10;1.17;;;;;;;15.11;83.63;101173.38;4927658;28;20031;-55
2021/09/17 07:11:08;;;;;;;2.33;0.75;;;;;;;15.00;83.24;101182.53;4928749;28;20031;-56
2021/09/17 07:13:34;;;;;;;4.47;1.00;;;;;;;15.01;83.30;101174.16;4926543;29;20467;-54
2021/09/17 07:16:00;;;;;;;2.60;0.73;;;;;;;15.32;82.42;101180.41;4914729;29;20046;-54
2021/09/17 07:18:25;;;;;;;0.75;0.68;;;;;;;15.08;82.25;101172.03;4927353;28;20197;-55
2021/09/17 07:20:51;;;;;;;1.15;0.68;;;;;;;15.00;82.90;101177.13;4925870;28;21196;-54
2021/09/17 07:23:17;;;;;;;1.65;0.60;;;;;;;14.93;83.39;101171.19;4927509;28;20035;-56
2021/09/17 07:25:43;;;;;;;0.68;0.68;;;;;;;14.69;83.59;101182.44;4929818;28;20031;-56
2021/09/17 07:28:09;;;;;;;1.52;0.63;;;;;;;14.84;83.34;101183.56;4927766;28;20061;-52
2021/09/17 07:30:34;;;;;;;0.70;0.70;;;;;;;14.68;83.49;101183.50;4926932;29;20474;-55
2021/09/17 07:33:00;;;;;;;0.75;0.60;;;;;;;14.63;84.43;101191.59;4927049;28;20584;-52
2021/09/17 07:35:27;;;;;;;4.28;1.00;;;;;;;14.66;84.14;101184.84;4927844;28;20027;-52
2021/09/17 07:37:52;;;;;;;1.30;1.10;;;;;;;14.58;84.82;101186.19;4927185;28;20490;-52
2021/09/17 07:40:19;;;;;;;1.65;1.25;;;;;;;14.64;84.96;101195.91;4927043;28;20035;-55
2021/09/17 07:42:46;;;;;;;4.40;1.30;;;;;;;14.58;85.29;101190.75;4927328;29;20126;-53
2021/09/17 07:45:12;;;;;;;2.00;1.30;;;;;;;14.50;86.18;101194.75;4926026;28;20066;-54
2021/09/17 07:47:38;;;;;;;1.13;1.02;;;;;;;14.58;86.13;101190.75;4927977;28;20034;-56
2021/09/17 07:50:06;;;;;;;1.85;1.42;;;;;;;14.72;85.26;101197.28;4923647;28;20524;-53
2021/09/17 07:52:31;;;;;;;3.05;1.67;;;;;;;14.68;86.12;101201.56;4924381;28;20046;-56
2021/09/17 07:54:57;;;;;;;2.20;1.48;;;;;;;14.57;86.59;101200.75;4924893;28;20099;-56
2021/09/17 07:57:22;;;;;;;2.55;1.00;;;;;;;14.49;87.26;101210.13;4911418;28;20031;-56
2021/09/17 07:59:48;;;;;;;1.40;0.90;;;;;;;14.57;87.02;101194.53;4923290;28;20062;-53
2021/09/17 08:02:13;;;;;;;1.85;0.95;;;;;;;14.56;86.65;101203.72;4923098;28;20039;-56
2021/09/17 08:04:39;;;;;;;0.50;0.50;;;;;;;14.90;85.37;101201.38;4911205;28;20705;-55
2021/09/17 08:07:05;;;;;;;2.60;0.80;;;;;;;14.74;85.74;101195.94;4922919;28;20327;-54
2021/09/17 08:09:32;;;;;;;1.27;1.00;;;;;;;14.99;85.09;101207.88;4922075;28;20071;-57
2021/09/17 08:11:57;;;;;;;1.42;1.13;;;;;;;15.09;84.78;101205.22;4921562;28;20034;-56
2021/09/17 08:14:22;;;;;;;0.57;0.57;;;;;;;15.00;83.93;101206.81;4923510;28;20031;-54
2021/09/17 08:16:48;;;;;;;1.15;0.70;;;;;;;15.22;82.83;101206.56;4923983;28;20400;-55
2021/09/17 08:19:13;;;;;;;2.15;1.02;;;;;;;14.98;83.76;101206.25;4924233;28;20038;-55
2021/09/17 08:21:41;;;;;;;1.85;0.98;;;;;;;15.05;84.32;101206.81;4924069;28;20039;-55
2021/09/17 08:24:13;;;;;;;1.73;0.70;;;;;;;15.27;83.35;101209.31;4923475;28;20122;-55
2021/09/17 08:26:40;;;;;;;0.85;0.55;;;;;;;15.10;83.75;101206.84;4923305;28;20070;-55
2021/09/17 08:29:06;;;;;;;2.10;0.50;;;;;;;15.52;82.34;101211.22;4924449;28;20031;-54
2021/09/17 08:31:32;;;;;;;1.55;0.43;;;;;;;15.75;81.33;101210.69;4924192;28;20188;-57
2021/09/17 08:33:57;;;;;;;0.20;0.20;;;;;;;15.33;83.18;101208.22;4923832;28;20038;-56
2021/09/17 08:36:22;;;;;;;1.30;0.35;;;;;;;15.27;84.56;101199.31;4925341;28;20640;-56
2021/09/17 08:38:48;;;;;;;0.30;0.30;;;;;;;14.99;87.94;101213.28;4922693;28;20478;-55
2021/09/17 08:41:15;;;;;;;0.82;0.40;;;;;;;14.62;90.88;101221.53;4923433;28;20073;-52
2021/09/17 08:43:43;;;;;;;0.82;0.43;;;;;;;14.66;91.91;101222.59;4922976;28;20290;-56
2021/09/17 08:46:12;;;;;;;3.40;0.47;;;;;;;14.43;93.87;101224.66;4924597;28;20286;-57
2021/09/17 08:48:38;;;;;;;0.50;0.50;;;;;;;14.29;95.23;101230.75;4920965;28;20090;-56
2021/09/17 08:51:03;;;;;;;0.47;0.40;;;;;;;14.38;95.83;101223.81;4921343;28;20102;-57
2021/09/17 08:53:29;;;;;;;0.55;0.40;;;;;;;14.22;94.66;101236.38;4923713;28;20046;-53
2021/09/17 08:55:54;;;;;;;0.40;0.40;;;;;;;14.18;95.85;101230.72;4923403;28;20110;-55
2021/09/17 08:58:33;;;;;;;1.80;0.85;;;;;;;14.28;95.91;101231.81;4922429;28;20033;-54
2021/09/17 09:00:59;;;;;;;0.50;0.50;;;;;;;14.33;95.56;101240.75;4920312;28;20429;-57
2021/09/17 09:03:33;;;;;;;1.55;0.55;;;;;;;14.27;94.58;101233.72;4923193;28;20034;-54
2021/09/17 09:06:13;;;;;;;0.50;0.50;;;;;;;14.43;94.40;101234.63;4921046;28;20100;-53
2021/09/17 09:08:40;;;;;;;1.02;0.40;;;;;;;14.50;93.33;101227.94;4922775;28;20323;-54
2021/09/17 09:11:20;;;;;;;2.22;1.10;;;;;;;14.44;92.63;101228.19;4922477;28;20027;-52
2021/09/17 09:14:10;;;;;;;0.93;0.90;;;;;;;14.56;92.60;101238.75;4920890;28;20039;-56
2021/09/17 09:16:39;;;;;;;3.08;2.33;;;;;;;14.52;93.04;101233.88;4921218;28;20031;-55
2021/09/17 09:19:24;;;;;;;3.85;3.15;;;;;;;14.47;93.38;101238.44;4922234;28;20123;-54
2021/09/17 09:21:52;;;;;;;;;;;;;;;14.23;95.40;101247.97;4922486;28;20091;-54
2021/09/17 09:24:20;;;;;;;8.18;6.25;;;;;;;14.31;95.26;101250.97;4924376;28;21376;-52
2021/09/17 09:26:46;;;;;;;4.78;4.22;;;;;;;14.27;95.21;101238.28;4922243;28;20026;-55
2021/09/17 09:29:28;;;;;;;2.42;1.55;;;;;;;14.25;95.71;101243.94;4920849;28;21397;-55
2021/09/17 09:31:54;;;;;;;4.22;2.88;;;;;;;14.07;97.69;101253.25;4910614;28;20449;-53
2021/09/17 09:34:21;;;;;;;6.18;5.35;;;;;;;14.02;99.68;101247.84;4921930;28;20035;-54
2021/09/17 09:36:47;;;;;;;7.80;6.30;;;;;;;13.90;100.00;101256.09;4920529;28;20145;-55
2021/09/17 09:39:13;;;;;;;9.43;7.95;;;;;;;13.92;100.00;101247.75;4922130;28;20042;-54
2021/09/17 09:41:39;;;;;;;6.47;4.68;;;;;;;13.87;100.00;101245.03;4915999;28;20102;-52
2021/09/17 09:44:17;;;;;;;3.13;2.50;;;;;;;13.83;100.00;101252.81;4920968;28;20147;-54
2021/09/17 09:46:45;;;;;;;3.15;2.42;;;;;;;13.90;100.00;101245.31;4921728;28;20027;-55
2021/09/17 09:49:15;;;;;;;3.10;2.35;;;;;;;13.96;100.00;101243.47;4922131;28;20309;-54
2021/09/17 09:51:42;;;;;;;2.72;2.28;;;;;;;13.96;100.00;101248.03;4920906;28;20043;-54
2021/09/17 09:54:09;;;;;;;2.63;1.70;;;;;;;14.00;100.00;101249.94;4919773;28;20093;-54
2021/09/17 09:56:36;;;;;;;3.10;1.80;;;;;;;14.03;100.00;101254.84;4920206;28;20031;-57
2021/09/17 09:59:05;;;;;;;4.65;1.30;;;;;;;14.09;100.00;101243.03;4920090;28;20130;-52
2021/09/17 10:01:35;;;;;;;7.85;4.32;;;;;;;14.12;100.00;101250.59;4923408;28;20027;-54
2021/09/17 10:04:02;;;;;;;3.35;2.38;;;;;;;14.17;98.93;101255.19;4923513;28;20174;-56
2021/09/17 10:06:30;;;;;;;2.28;0.80;;;;;;;14.28;97.92;101253.38;4919760;28;20403;-56
2021/09/17 10:08:56;;;;;;;1.35;1.00;;;;;;;14.32;97.65;101255.28;4919790;28;20035;-54
2021/09/17 10:11:23;;;;;;;1.42;1.00;;;;;;;14.29;96.91;101255.00;4920100;28;20517;-59
2021/09/17 10:13:51;;;;;;;2.42;1.50;;;;;;;14.31;95.80;101253.66;4921573;28;20083;-56
2021/09/17 10:16:17;;;;;;;5.35;3.30;;;;;;;14.32;95.01;101252.59;4921603;28;20062;-54
2021/09/17 10:18:44;;;;;;;2.03;1.75;;;;;;;14.41;94.08;101256.44;4921658;28;20034;-56
2021/09/17 10:21:13;;;;;;;1.83;1.27;;;;;;;14.41;93.00;101252.94;4922025;28;20034;-56
2021/09/17 10:23:43;;;;;;;4.10;3.65;;;;;;;14.54;92.19;101252.47;4920878;28;20039;-55
2021/09/17 10:26:11;;;;;;;9.35;8.45;;;;;;;14.57;90.73;101262.75;4920111;28;20110;-56
2021/09/17 10:29:06;;;;;;;6.45;4.50;;;;;;;14.76;89.99;101263.94;4918261;28;20240;-56
2021/09/17 10:31:45;;;;;;;5.65;4.95;;;;;;;14.97;89.30;101259.41;4918950;28;20541;-55
2021/09/17 10:34:43;;;;;;;2.40;2.20;;;;;;;14.97;87.13;101259.41;4911195;28;20218;-55
2021/09/17 10:37:10;;;;;;;2.15;0.50;;;;;;;14.99;85.47;101262.66;4922957;28;20035;-54
2021/09/17 10:39:36;;;;;;;0.50;0.50;;;;;;;15.18;85.57;101257.59;4908144;29;20145;-54
2021/09/17 10:42:14;;;;;;;5.60;5.10;;;;;;;15.18;85.25;101265.69;4922450;28;20070;-53
2021/09/17 10:45:15;;;;;;;12.05;10.85;;;;;;;15.19;85.10;101270.00;4917709;28;20036;-56
2021/09/17 10:47:41;;;;;;;6.18;5.50;;;;;;;15.29;84.21;101271.94;4881829;28;20784;-56
2021/09/17 10:50:12;;;;;;;6.38;5.75;;;;;;;15.22;84.77;101274.06;4919499;28;20039;-53
2021/09/17 10:52:41;;;;;;;25.27;22.58;;;;;;;14.81;86.05;101265.84;4919716;28;20027;-54
2021/09/17 10:55:08;;;;;;;25.50;21.35;;;;;;;14.79;87.86;101267.97;4916965;28;20540;-54
2021/09/17 10:58:12;;;;;;;11.73;10.50;;;;;;;14.78;87.63;101266.38;4921784;28;20045;-52
2021/09/17 11:00:55;;;;;;;9.90;8.55;;;;;;;15.12;86.04;101274.84;4919981;28;20710;-56
2021/09/17 11:03:36;;;;;;;12.07;9.85;;;;;;;15.01;86.09;101265.09;4922354;28;20149;-55
2021/09/17 11:08:45;;;;;;;7.38;5.35;;;;;;;15.08;84.66;101268.34;4921490;28;20047;-56
2021/09/17 11:11:41;;;;;;;4.43;4.03;;;;;;;15.04;84.52;101273.47;4920116;28;21421;-56
2021/09/17 11:14:14;;;;;;;4.63;3.95;;;;;;;15.26;84.13;101262.47;4922604;28;20032;-54
2021/09/17 11:16:41;;;;;;;11.00;9.77;;;;;;;15.31;83.46;101267.06;4920497;28;20114;-55
2021/09/17 11:19:10;;;;;;;5.80;5.22;;;;;;;15.40;82.73;101268.97;4920423;28;20794;-57
2021/09/17 11:21:45;;;;;;;6.20;5.60;;;;;;;15.58;81.86;101264.13;4921421;28;20490;-55
2021/09/17 11:24:25;;;;;;;1.67;1.30;;;;;;;15.64;79.75;101263.94;4922410;28;20402;-52
2021/09/17 11:26:52;;;;;;;10.38;1.52;;;;;;;16.02;78.90;101262.56;4924190;28;20023;-52